Time;durP1;ratioP1;P1;durP2;ratioP2;P2;SDS_P1;SDS_P2;PMS_P1;PMS_P2;Temp;Humidity;BMP_temperature;BMP_pressure;BME280_temperature;BME280_humidity;BME280_pressure;Samples;Min_cycle;Max_cycle;Signal;HPM_P1;HPM_P2
2022/12/29 00:01:09;;;;;;;;;;;;;;;26.30;27.44;102013.16;5077203;28;1036;-21
2022/12/29 00:03:34;;;;;;;;;;;;;;;26.31;27.33;102006.75;5076628;28;1902;-20
2022/12/29 00:06:00;;;;;;;;;;;;;;;26.31;27.21;102004.06;5064088;28;894;-21
2022/12/29 00:08:40;;;;;;;;;;;;;;;26.31;27.36;102001.38;5077355;28;1130;-20
2022/12/29 00:11:10;;;;;;;;;;;;;;;26.28;27.64;101998.97;5077035;28;1205;-20
2022/12/29 00:16:19;;;;;;;;;;;;;;;26.27;27.20;102005.38;5076479;28;1128;-21
2022/12/29 00:18:44;;;;;;;;;;;;;;;26.27;27.55;102000.84;5076700;28;921;-20
2022/12/29 00:35:10;;;;;;;;;;;;;;;26.23;27.43;101996.72;5076025;28;1020;-21
2022/12/29 00:45:48;;;;;;;;;;;;;;;26.21;27.42;101990.59;5062967;28;870;-20
2022/12/29 00:48:13;;;;;;;;;;;;;;;26.23;27.37;101988.63;5076006;28;1151;-20
2022/12/29 00:50:39;;;;;;;;;;;;;;;26.27;27.49;101990.03;5076716;28;1095;-21
2022/12/29 00:53:04;;;;;;;;;;;;;;;26.26;27.31;101992.84;5075273;28;1821;-20
2022/12/29 00:55:29;;;;;;;;;;;;;;;26.24;27.67;101990.31;5076091;28;1115;-20
2022/12/29 00:57:54;;;;;;;;;;;;;;;26.26;27.49;101991.03;5076408;28;1181;-20
2022/12/29 01:00:20;;;;;;;;;;;;;;;26.25;27.23;101986.63;5075914;28;1071;-20
2022/12/29 01:02:45;;;;;;;;;;;;;;;26.24;27.47;101974.13;5075734;28;1965;-20
2022/12/29 01:05:10;;;;;;;;;;;;;;;26.24;27.39;101973.28;5076037;28;1259;-20
2022/12/29 01:07:36;;;;;;;;;;;;;;;26.21;27.86;101973.59;5075845;28;1122;-21
2022/12/29 01:10:10;;;;;;;;;;;;;;;26.21;27.65;101966.34;5075042;28;1094;-21
2022/12/29 01:12:41;;;;;;;;;;;;;;;26.19;27.39;101962.09;5075833;28;1055;-21
2022/12/29 01:15:07;;;;;;;;;;;;;;;26.23;27.40;101966.19;5076123;28;1074;-20
2022/12/29 01:17:32;;;;;;;;;;;;;;;26.14;27.66;101960.66;5074905;28;1274;-20
2022/12/29 01:19:57;;;;;;;;;;;;;;;26.15;27.82;101957.00;5076041;28;1099;-20
2022/12/29 01:22:23;;;;;;;;;;;;;;;26.18;27.64;101955.84;5075268;28;1914;-20
2022/12/29 01:24:48;;;;;;;;;;;;;;;26.22;27.70;101951.00;5067837;28;2673;-20
2022/12/29 01:27:14;;;;;;;;;;;;;;;26.20;27.76;101944.91;5075621;28;1118;-21
2022/12/29 01:29:39;;;;;;;;;;;;;;;26.13;27.80;101942.81;5075660;28;1011;-20
2022/12/29 01:32:04;;;;;;;;;;;;;;;26.15;27.70;101942.66;5075772;28;1171;-20
2022/12/29 01:34:30;;;;;;;;;;;;;;;26.14;27.74;101940.97;5075428;28;1123;-21
2022/12/29 01:36:55;;;;;;;;;;;;;;;26.13;27.78;101932.03;5075904;28;1084;-20
2022/12/29 01:39:20;;;;;;;;;;;;;;;26.12;27.52;101922.25;5075388;28;1141;-20
2022/12/29 01:41:45;;;;;;;;;;;;;;;26.10;27.57;101921.53;5074536;28;1031;-20
2022/12/29 01:44:29;;;;;;;;;;;;;;;26.08;27.68;101911.88;5075630;28;1960;-21
2022/12/29 01:46:55;;;;;;;;;;;;;;;26.09;27.65;101909.03;5075113;28;1114;-20
2022/12/29 01:49:21;;;;;;;;;;;;;;;26.08;27.74;101893.00;5075262;28;1106;-20
2022/12/29 01:51:57;;;;;;;;;;;;;;;26.11;27.80;101898.94;5057128;28;1220;-20
2022/12/29 01:54:26;;;;;;;;;;;;;;;26.09;27.57;101886.63;5067951;28;2513;-20
2022/12/29 01:56:53;;;;;;;;;;;;;;;26.08;27.75;101877.69;5077241;28;1020;-21
2022/12/29 01:59:20;;;;;;;;;;;;;;;26.08;27.56;101877.69;5079592;28;1008;-20
2022/12/29 02:01:45;;;;;;;;;;;;;;;26.11;27.67;101884.63;5079534;28;1063;-20
2022/12/29 02:04:10;;;;;;;;;;;;;;;26.08;27.60;101882.22;5061671;28;1953;-20
2022/12/29 02:06:46;;;;;;;;;;;;;;;26.10;27.83;101885.63;5078652;28;1064;-20
2022/12/29 02:09:11;;;;;;;;;;;;;;;26.10;27.83;101880.22;5079275;28;1004;-20
2022/12/29 02:11:36;;;;;;;;;;;;;;;26.09;27.74;101884.75;5078991;28;1134;-21
2022/12/29 02:14:04;;;;;;;;;;;;;;;26.05;27.86;101888.75;5061035;28;1079;-21
2022/12/29 02:16:30;;;;;;;;;;;;;;;26.11;27.85;101893.56;5060705;28;1284;-21
2022/12/29 02:19:14;;;;;;;;;;;;;;;26.07;27.57;101880.53;5079283;28;1071;-21
2022/12/29 02:21:48;;;;;;;;;;;;;;;26.01;27.92;101880.13;5067198;28;969;-21
2022/12/29 02:24:32;;;;;;;;;;;;;;;26.04;27.55;101874.44;5053305;28;2378;-21
2022/12/29 02:27:03;;;;;;;;;;;;;;;26.03;28.07;101880.81;5078860;28;1060;-20
2022/12/29 02:29:31;;;;;;;;;;;;;;;26.05;27.63;101880.66;5078356;28;1134;-21
2022/12/29 02:32:35;;;;;;;;;;;;;;;26.02;27.62;101871.06;5078610;28;895;-21
2022/12/29 02:35:19;;;;;;;;;;;;;;;26.04;27.87;101868.19;4996735;28;1237;-20
2022/12/29 02:37:59;;;;;;;;;;;;;;;25.99;27.70;101860.53;4997031;28;1104;-20
2022/12/29 02:40:27;;;;;;;;;;;;;;;26.03;27.70;101855.69;5052789;28;1167;-21
2022/12/29 02:43:01;;;;;;;;;;;;;;;26.02;27.79;101854.88;5060396;28;1963;-21
2022/12/29 02:45:28;;;;;;;;;;;;;;;26.06;27.81;101857.25;5060452;28;1166;-21
2022/12/29 02:48:10;;;;;;;;;;;;;;;26.05;27.74;101856.41;5060684;28;1161;-21
2022/12/29 02:50:35;;;;;;;;;;;;;;;26.05;27.62;101851.00;5060219;28;1115;-22
2022/12/29 02:53:02;;;;;;;;;;;;;;;26.02;27.74;101852.19;5078649;28;1091;-20
2022/12/29 02:55:27;;;;;;;;;;;;;;;26.04;27.61;101860.13;5077413;28;2790;-21
2022/12/29 02:58:11;;;;;;;;;;;;;;;26.06;27.94;101855.41;5078865;28;1155;-21
2022/12/29 03:00:41;;;;;;;;;;;;;;;26.03;28.11;101843.06;5058136;28;1008;-22
2022/12/29 03:03:16;;;;;;;;;;;;;;;26.07;27.85;101845.47;5055656;28;1980;-21
2022/12/29 03:05:41;;;;;;;;;;;;;;;26.05;27.98;101840.22;5077001;28;1190;-21
2022/12/29 03:08:10;;;;;;;;;;;;;;;26.02;27.91;101844.09;5078042;28;894;-21
2022/12/29 03:10:40;;;;;;;;;;;;;;;26.07;27.91;101846.31;5060508;28;1025;-21
2022/12/29 03:16:11;;;;;;;;;;;;;;;26.04;27.95;101843.94;5077862;28;1024;-21
2022/12/29 03:18:41;;;;;;;;;;;;;;;26.02;28.04;101843.22;5077694;28;1208;-21
2022/12/29 03:21:06;;;;;;;;;;;;;;;26.03;27.76;101853.88;5078146;28;1007;-21
2022/12/29 03:23:32;;;;;;;;;;;;;;;26.06;28.15;101855.41;5073587;28;2338;-21
2022/12/29 03:25:58;;;;;;;;;;;;;;;26.06;27.78;101852.69;5056548;28;1345;-21
2022/12/29 03:28:28;;;;;;;;;;;;;;;26.06;27.97;101862.66;5078185;28;1163;-21
2022/12/29 03:30:53;;;;;;;;;;;;;;;26.06;27.97;101862.66;5059455;28;1167;-20
2022/12/29 03:33:21;;;;;;;;;;;;;;;26.06;27.66;101857.25;5059929;28;1052;-21
2022/12/29 03:35:46;;;;;;;;;;;;;;;26.07;28.10;101864.34;5077425;28;1047;-20
2022/12/29 03:38:15;;;;;;;;;;;;;;;26.08;27.70;101863.34;5060100;28;1120;-21
2022/12/29 03:40:42;;;;;;;;;;;;;;;26.11;27.73;101877.38;5059309;28;1060;-21
2022/12/29 03:43:07;;;;;;;;;;;;;;;26.11;27.73;101871.97;5059320;28;1968;-21
2022/12/29 03:45:32;;;;;;;;;;;;;;;26.09;27.86;101881.22;5059009;28;1079;-21
2022/12/29 03:47:58;;;;;;;;;;;;;;;26.07;27.79;101880.53;5077790;28;1107;-21
2022/12/29 03:50:23;;;;;;;;;;;;;;;26.11;27.73;101884.63;5078153;28;1142;-21
2022/12/29 03:52:48;;;;;;;;;;;;;;;26.08;27.72;101876.81;5077301;28;1111;-21
2022/12/29 03:55:14;;;;;;;;;;;;;;;26.10;27.60;101872.13;5075935;28;2497;-21
2022/12/29 03:57:39;;;;;;;;;;;;;;;26.09;27.62;101865.88;5077907;28;1088;-21
2022/12/29 04:00:05;;;;;;;;;;;;;;;26.14;28.07;101879.78;5077194;28;1075;-21
2022/12/29 04:02:30;;;;;;;;;;;;;;;26.12;27.66;101884.50;5076817;28;1956;-21
2022/12/29 04:04:55;;;;;;;;;;;;;;;26.11;27.69;101888.16;5077235;28;1235;-21
2022/12/29 04:07:21;;;;;;;;;;;;;;;26.15;27.81;101884.19;5077069;28;1194;-21
2022/12/29 04:09:46;;;;;;;;;;;;;;;26.12;27.83;101883.63;5077313;28;1158;-21
2022/12/29 04:12:11;;;;;;;;;;;;;;;26.10;27.84;101882.91;5077265;28;1106;-21
2022/12/29 04:14:37;;;;;;;;;;;;;;;26.14;27.80;101890.56;5076880;28;1132;-21
2022/12/29 04:17:02;;;;;;;;;;;;;;;26.14;27.92;101887.03;5076209;28;1119;-21
2022/12/29 04:19:27;;;;;;;;;;;;;;;25.84;26.85;101888.97;5076619;28;1118;-21
2022/12/29 04:21:52;;;;;;;;;;;;;;;25.42;22.27;101885.63;5076351;28;1012;-21
2022/12/29 04:24:18;;;;;;;;;;;;;;;25.29;21.79;101886.78;5068765;28;2459;-21
2022/12/29 04:26:43;;;;;;;;;;;;;;;25.18;21.40;101884.22;5077018;28;1186;-21
2022/12/29 04:29:08;;;;;;;;;;;;;;;24.54;23.05;101874.63;5076348;28;1079;-20
2022/12/29 04:31:34;;;;;;;;;;;;;;;23.05;25.68;101883.69;5076108;28;1032;-20
2022/12/29 04:33:59;;;;;;;;;;;;;;;22.31;26.87;101888.66;5076659;28;1119;-20
2022/12/29 04:36:25;;;;;;;;;;;;;;;23.52;23.83;101878.97;5076219;28;1043;-20
2022/12/29 04:38:50;;;;;;;;;;;;;;;23.92;22.91;101880.88;5076355;28;1095;-20
2022/12/29 04:41:15;;;;;;;;;;;;;;;23.09;24.27;101886.94;5076357;28;1194;-20
2022/12/29 04:43:41;;;;;;;;;;;;;;;23.15;24.53;101885.56;5076286;28;1965;-20
2022/12/29 04:46:06;;;;;;;;;;;;;;;23.08;24.24;101887.91;5076750;28;1045;-20
2022/12/29 04:48:31;;;;;;;;;;;;;;;23.18;23.02;101896.06;5075922;28;1044;-20
2022/12/29 04:50:57;;;;;;;;;;;;;;;22.87;23.32;101897.63;5075855;28;1040;-20
2022/12/29 04:53:22;;;;;;;;;;;;;;;23.15;24.66;101902.53;5075858;28;2218;-19
2022/12/29 04:55:50;;;;;;;;;;;;;;;23.43;25.26;101894.03;5066503;28;1023;-13
2022/12/29 04:58:16;;;;;;;;;;;;;;;24.77;24.54;101898.63;5072232;28;1226;-13
2022/12/29 05:00:41;;;;;;;;;;;;;;;25.25;24.08;101890.75;5075974;28;1043;-13
2022/12/29 05:03:06;;;;;;;;;;;;;;;24.92;21.97;101891.00;5075813;28;1956;-13
2022/12/29 05:05:32;;;;;;;;;;;;;;;25.60;20.43;101888.44;5075678;28;1016;-13
2022/12/29 05:07:57;;;;;;;;;;;;;;;24.52;18.63;101892.78;5075419;28;1139;-13
2022/12/29 05:10:22;;;;;;;;;;;;;;;23.90;19.50;101892.75;5076214;28;1398;-13
2022/12/29 05:12:47;;;;;;;;;;;;;;;25.11;19.65;101889.31;5075553;28;1079;-13
2022/12/29 05:15:13;;;;;;;;;;;;;;;25.53;19.11;101896.25;5075428;28;1031;-13
2022/12/29 05:18:15;;;;;;;;;;;;;;;24.55;21.06;101888.94;5075020;28;1150;-13
2022/12/29 05:22:41;;;;;;;;;;;;;;;23.56;24.38;101888.44;5097288;27;1289;-40
2022/12/29 05:25:07;;;;;;;;;;;;;;;23.82;24.67;101880.00;5092889;28;2828;-37
2022/12/29 05:27:32;;;;;;;;;;;;;;;24.94;23.89;101886.34;5092339;28;1070;-38
2022/12/29 05:29:57;;;;;;;;;;;;;;;26.44;22.01;101887.78;5093277;28;1019;-37
2022/12/29 05:32:23;;;;;;;;;;;;;;;25.81;22.97;101884.72;5092381;28;1076;-38
2022/12/29 05:34:48;;;;;;;;;;;;;;;25.25;23.96;101885.38;5092750;28;1131;-38
2022/12/29 05:37:13;;;;;;;;;;;;;;;25.04;24.75;101888.22;5093292;28;1167;-37
2022/12/29 05:39:39;;;;;;;;;;;;;;;24.78;25.26;101886.88;5092980;28;1166;-37
2022/12/29 05:42:04;;;;;;;;;;;;;;;24.45;26.07;101884.41;5093278;28;1913;-38
2022/12/29 05:44:29;;;;;;;;;;;;;;;24.42;26.35;101881.13;5092972;28;853;-32
2022/12/29 05:46:55;;;;;;;;;;;;;;;24.65;26.20;101881.75;5092644;28;1135;-18
2022/12/29 05:49:20;;;;;;;;;;;;;;;25.52;25.19;101891.88;5093472;28;1182;-18
2022/12/29 05:54:48;;;;;;;;;;;;;;;24.96;26.14;101899.66;5092128;28;1717;-18
2022/12/29 05:57:13;;;;;;;;;;;;;;;25.07;26.24;101893.31;5092659;28;884;-18
2022/12/29 05:59:38;;;;;;;;;;;;;;;25.14;25.96;101890.91;5092073;28;1055;-18
2022/12/29 06:02:04;;;;;;;;;;;;;;;24.99;26.51;101894.00;5092816;28;1889;-18
2022/12/29 06:04:29;;;;;;;;;;;;;;;25.75;25.07;101902.34;5092591;28;1098;-18
2022/12/29 06:06:54;;;;;;;;;;;;;;;26.31;21.05;101898.84;5092669;28;1086;-18
2022/12/29 06:09:19;;;;;;;;;;;;;;;26.49;19.44;101898.09;5092447;28;883;-18
2022/12/29 06:11:45;;;;;;;;;;;;;;;25.99;21.36;101897.44;5074170;28;1097;-19
2022/12/29 06:14:10;;;;;;;;;;;;;;;25.26;23.05;101895.13;5092460;28;1070;-18
2022/12/29 06:16:36;;;;;;;;;;;;;;;25.78;22.87;101893.97;5092537;28;1174;-18
2022/12/29 06:19:01;;;;;;;;;;;;;;;25.59;23.32;101893.97;5092401;28;1181;-18
2022/12/29 06:21:26;;;;;;;;;;;;;;;26.70;22.10;101900.53;5101686;28;1975;-18
2022/12/29 06:23:51;;;;;;;;;;;;;;;28.07;20.86;101898.59;5105390;28;1827;-18
2022/12/29 06:26:17;;;;;;;;;;;;;;;28.24;20.70;101905.75;5111760;28;1129;-18
2022/12/29 06:28:42;;;;;;;;;;;;;;;28.75;20.27;101903.25;5112415;28;1089;-18
2022/12/29 06:31:10;;;;;;;;;;;;;;;28.98;20.22;101897.22;5112578;28;1236;-18
2022/12/29 06:33:36;;;;;;;;;;;;;;;28.40;21.38;101897.91;5101807;28;867;-18
2022/12/29 06:36:01;;;;;;;;;;;;;;;27.62;22.72;101901.34;5098486;28;1153;-18
2022/12/29 06:38:27;;;;;;;;;;;;;;;27.22;23.35;101900.88;5086636;28;1134;-17
2022/12/29 06:40:52;;;;;;;;;;;;;;;28.31;21.78;101902.44;5078696;28;1898;-18
2022/12/29 06:43:17;;;;;;;;;;;;;;;26.55;23.96;101894.78;5091363;28;1166;-18
2022/12/29 06:45:43;;;;;;;;;;;;;;;26.57;23.96;101900.91;5082801;28;1253;-17
2022/12/29 06:48:08;;;;;;;;;;;;;;;28.13;22.25;101897.94;5078611;28;1067;-18
2022/12/29 06:50:33;;;;;;;;;;;;;;;27.75;22.12;101895.56;5085115;28;1094;-17
2022/12/29 06:52:59;;;;;;;;;;;;;;;27.43;21.90;101892.44;5089374;28;1126;-17
2022/12/29 06:55:24;;;;;;;;;;;;;;;26.41;24.01;101886.22;5081173;28;1193;-18
2022/12/29 06:57:49;;;;;;;;;;;;;;;27.38;23.02;101894.75;5091263;28;1154;-18
2022/12/29 07:00:15;;;;;;;;;;;;;;;27.54;22.97;101898.59;5078732;28;1123;-18
2022/12/29 07:02:40;;;;;;;;;;;;;;;26.73;24.24;101891.25;5085145;28;1969;-17
2022/12/29 07:05:07;;;;;;;;;;;;;;;26.44;24.64;101895.00;5084714;28;1039;-17
2022/12/29 07:07:32;;;;;;;;;;;;;;;27.78;22.58;101894.41;5094133;28;1007;-18
2022/12/29 07:09:57;;;;;;;;;;;;;;;27.81;22.94;101897.59;5084005;28;1276;-19
2022/12/29 07:12:23;;;;;;;;;;;;;;;27.98;22.74;101892.28;5082788;28;1359;-18
2022/12/29 07:14:48;;;;;;;;;;;;;;;26.92;24.00;101895.69;5098196;28;1034;-18
2022/12/29 07:17:13;;;;;;;;;;;;;;;28.28;22.68;101897.34;5088225;28;1265;-18
2022/12/29 07:19:39;;;;;;;;;;;;;;;27.99;22.23;101905.66;5086141;28;1209;-19
2022/12/29 07:22:04;;;;;;;;;;;;;;;27.96;22.59;101903.28;5089279;28;1909;-18
2022/12/29 07:24:29;;;;;;;;;;;;;;;27.82;23.42;101904.72;5085795;28;1270;-18
2022/12/29 07:26:54;;;;;;;;;;;;;;;28.62;21.96;101899.16;5087964;28;1028;-18
2022/12/29 07:29:20;;;;;;;;;;;;;;;28.18;22.40;101902.84;5087370;28;1215;-18
2022/12/29 07:31:45;;;;;;;;;;;;;;;27.96;22.42;101900.56;5091171;28;1296;-18
2022/12/29 07:34:10;;;;;;;;;;;;;;;28.17;22.75;101904.75;5091744;28;1568;-19
2022/12/29 07:36:36;;;;;;;;;;;;;;;28.35;22.12;101904.66;5088608;28;1278;-17
2022/12/29 07:39:01;;;;;;;;;;;;;;;28.29;22.05;101894.47;5093500;28;1217;-17
2022/12/29 07:41:27;;;;;;;;;;;;;;;27.39;23.61;101901.88;5095466;28;1957;-18
2022/12/29 07:43:52;;;;;;;;;;;;;;;28.32;22.39;101902.25;5089584;28;1122;-18
2022/12/29 07:46:17;;;;;;;;;;;;;;;28.31;21.97;101903.25;5083725;28;1029;-18
2022/12/29 07:48:42;;;;;;;;;;;;;;;28.13;22.61;101897.13;5097893;28;1090;-19
2022/12/29 07:51:08;;;;;;;;;;;;;;;26.71;24.24;101907.63;5083966;28;1229;-18
2022/12/29 07:53:33;;;;;;;;;;;;;;;27.67;23.07;101900.88;5086633;28;1118;-18
2022/12/29 07:55:58;;;;;;;;;;;;;;;28.11;22.87;101903.50;5088459;28;1047;-18
2022/12/29 07:58:23;;;;;;;;;;;;;;;28.19;22.41;101899.16;5087544;28;1218;-18
2022/12/29 08:00:53;;;;;;;;;;;;;;;28.24;22.34;101908.47;5085919;28;1901;-19
2022/12/29 08:03:18;;;;;;;;;;;;;;;28.29;22.55;101897.19;5090857;28;1253;-18
2022/12/29 08:05:43;;;;;;;;;;;;;;;28.42;21.98;101904.00;5088525;28;1253;-18
2022/12/29 08:08:08;;;;;;;;;;;;;;;28.28;22.28;101903.59;5095889;28;1198;-18
2022/12/29 08:10:34;;;;;;;;;;;;;;;28.22;22.57;101906.94;5093051;28;1158;-17
2022/12/29 08:12:59;;;;;;;;;;;;;;;28.17;22.41;101907.44;5089369;28;1434;-17
2022/12/29 08:15:24;;;;;;;;;;;;;;;28.02;21.54;101903.63;5076854;28;1042;-17
2022/12/29 08:17:50;;;;;;;;;;;;;;;27.94;22.11;101905.31;5081290;28;1127;-17
2022/12/29 08:20:15;;;;;;;;;;;;;;;27.84;22.29;101899.97;5083477;28;1035;-17
2022/12/29 08:22:40;;;;;;;;;;;;;;;27.81;22.61;101908.41;5083365;28;1976;-18
2022/12/29 08:25:05;;;;;;;;;;;;;;;27.81;22.02;101910.28;5093536;28;1138;-17
2022/12/29 08:27:31;;;;;;;;;;;;;;;27.72;22.35;101909.38;5092783;28;1280;-18
2022/12/29 08:29:56;;;;;;;;;;;;;;;27.78;22.69;101905.22;5087433;28;1218;-18
2022/12/29 08:32:21;;;;;;;;;;;;;;;27.72;22.51;101903.97;5085683;28;1277;-18
2022/12/29 08:34:47;;;;;;;;;;;;;;;27.59;22.61;101901.66;5093943;28;1276;-19
2022/12/29 08:37:12;;;;;;;;;;;;;;;27.61;22.43;101900.50;5086672;28;1138;-18
2022/12/29 08:39:37;;;;;;;;;;;;;;;27.67;22.14;101895.47;5093394;28;1167;-19
2022/12/29 08:42:03;;;;;;;;;;;;;;;27.58;22.43;101890.00;5087246;28;1968;-19
2022/12/29 08:44:28;;;;;;;;;;;;;;;27.49;22.86;101890.97;5079697;28;1165;-18
2022/12/29 08:46:53;;;;;;;;;;;;;;;27.58;22.62;101890.00;5087053;28;1197;-19
2022/12/29 08:49:18;;;;;;;;;;;;;;;27.49;22.33;101889.09;5077341;28;1131;-19
2022/12/29 08:51:44;;;;;;;;;;;;;;;27.53;22.60;101886.94;5076487;28;888;-18
2022/12/29 08:54:09;;;;;;;;;;;;;;;27.59;23.06;101891.69;5079113;28;992;-19
2022/12/29 08:56:34;;;;;;;;;;;;;;;27.57;22.53;101888.31;5096436;28;1514;-19
2022/12/29 08:58:59;;;;;;;;;;;;;;;27.53;22.67;101884.22;5080520;28;1305;-18
2022/12/29 09:01:25;;;;;;;;;;;;;;;27.31;23.00;101878.31;5076136;28;1973;-19
2022/12/29 09:03:50;;;;;;;;;;;;;;;27.51;23.19;101878.13;5082173;28;1062;-19
2022/12/29 09:06:15;;;;;;;;;;;;;;;27.68;22.86;101872.81;5092757;28;1336;-18
2022/12/29 09:08:41;;;;;;;;;;;;;;;27.68;22.92;101870.13;5093676;28;1230;-18
2022/12/29 09:11:19;;;;;;;;;;;;;;;27.75;22.81;101873.91;5087930;28;1430;-18
2022/12/29 09:13:44;;;;;;;;;;;;;;;27.93;22.54;101881.09;5086270;28;1214;-18
2022/12/29 09:16:10;;;;;;;;;;;;;;;28.02;22.54;101868.47;5084888;28;1213;-19
2022/12/29 09:18:35;;;;;;;;;;;;;;;28.04;22.67;101863.75;5084904;28;1257;-18
2022/12/29 09:21:01;;;;;;;;;;;;;;;28.02;22.87;101863.94;5081903;28;1905;-18
2022/12/29 09:23:26;;;;;;;;;;;;;;;28.07;22.73;101860.72;5085190;28;1123;-19
2022/12/29 09:25:52;;;;;;;;;;;;;;;28.26;22.54;101856.91;5084701;28;1193;-18
2022/12/29 09:28:17;;;;;;;;;;;;;;;28.35;22.72;101855.97;5083443;28;1206;-18
2022/12/29 09:30:42;;;;;;;;;;;;;;;28.22;22.57;101860.97;5086136;28;1067;-18
2022/12/29 09:33:08;;;;;;;;;;;;;;;28.49;22.41;101859.03;5091135;28;1132;-18
2022/12/29 09:35:33;;;;;;;;;;;;;;;28.46;22.70;101859.38;5095826;28;1043;-19
2022/12/29 09:37:58;;;;;;;;;;;;;;;28.44;22.58;101856.84;5083485;28;1235;-18
2022/12/29 09:40:25;;;;;;;;;;;;;;;28.37;22.93;101855.78;5086725;28;1963;-18
2022/12/29 09:43:01;;;;;;;;;;;;;;;28.17;22.97;101855.19;5088062;28;1079;-18
2022/12/29 09:45:37;;;;;;;;;;;;;;;28.18;22.82;101849.59;5086806;28;1344;-18
2022/12/29 09:48:03;;;;;;;;;;;;;;;28.20;23.00;101841.31;5085241;28;1066;-18
2022/12/29 09:50:30;;;;;;;;;;;;;;;28.21;23.08;101838.44;5093437;28;1261;-17
2022/12/29 09:53:11;;;;;;;;;;;;;;;28.22;22.90;101837.47;5086989;28;1276;-18
2022/12/29 09:55:41;;;;;;;;;;;;;;;28.19;23.15;101836.94;5082386;28;1170;-17
2022/12/29 09:58:14;;;;;;;;;;;;;;;28.30;23.06;101827.66;5083062;28;1020;-18
2022/12/29 10:00:39;;;;;;;;;;;;;;;28.23;23.09;101824.75;5085670;28;1905;-18
2022/12/29 10:03:13;;;;;;;;;;;;;;;28.29;23.08;101820.56;5082062;28;1190;-18
2022/12/29 10:05:50;;;;;;;;;;;;;;;28.23;22.96;101822.06;5096012;28;1121;-18
2022/12/29 10:08:34;;;;;;;;;;;;;;;28.32;23.32;101825.66;5087761;28;1191;-18
2022/12/29 10:11:03;;;;;;;;;;;;;;;28.42;23.28;101818.25;5095176;28;995;-18
2022/12/29 10:13:43;;;;;;;;;;;;;;;28.40;22.86;101814.00;5096191;28;1043;-18
2022/12/29 10:16:14;;;;;;;;;;;;;;;28.28;23.30;101810.75;5087548;28;1139;-18
2022/12/29 10:18:52;;;;;;;;;;;;;;;28.27;23.21;101809.06;5079207;28;1055;-18
2022/12/29 10:21:35;;;;;;;;;;;;;;;28.16;22.70;101802.09;5096904;28;1913;-18
2022/12/29 10:24:02;;;;;;;;;;;;;;;28.08;23.12;101800.19;5098749;28;1066;-18
2022/12/29 10:26:27;;;;;;;;;;;;;;;28.03;23.54;101795.28;5086450;28;1107;-18
2022/12/29 10:28:55;;;;;;;;;;;;;;;28.02;23.32;101785.50;5098975;28;1031;-17
2022/12/29 10:31:21;;;;;;;;;;;;;;;27.96;22.93;101786.97;5098293;28;1090;-18
2022/12/29 10:33:48;;;;;;;;;;;;;;;27.93;22.75;101776.50;5083816;28;1201;-18
2022/12/29 10:36:13;;;;;;;;;;;;;;;28.11;23.33;101779.09;5079319;28;1044;-18
2022/12/29 10:38:41;;;;;;;;;;;;;;;28.18;23.17;101773.88;5078871;28;1122;-18
2022/12/29 10:41:23;;;;;;;;;;;;;;;28.18;23.22;101773.88;5085805;28;1970;-18
2022/12/29 10:43:49;;;;;;;;;;;;;;;28.19;23.31;101778.28;5082913;28;1178;-18
2022/12/29 10:46:16;;;;;;;;;;;;;;;28.29;22.91;101771.88;5091066;28;883;-18
2022/12/29 10:48:45;;;;;;;;;;;;;;;28.31;23.01;101776.06;5090818;28;1135;-18
2022/12/29 10:51:10;;;;;;;;;;;;;;;28.42;22.94;101758.72;5078793;28;1066;-18
2022/12/29 10:53:36;;;;;;;;;;;;;;;28.42;23.00;101772.25;5078127;28;1060;-18
2022/12/29 10:56:01;;;;;;;;;;;;;;;28.27;23.49;101761.22;5090326;28;1113;-18
2022/12/29 10:58:26;;;;;;;;;;;;;;;28.42;23.19;101764.13;5079630;28;1012;-18
2022/12/29 11:00:53;;;;;;;;;;;;;;;28.52;23.04;101766.69;5089560;28;1973;-18
2022/12/29 11:03:37;;;;;;;;;;;;;;;28.48;23.13;101762.59;5091181;28;1135;-18
2022/12/29 11:06:07;;;;;;;;;;;;;;;28.50;23.14;101759.72;5098550;28;1082;-18
2022/12/29 11:08:36;;;;;;;;;;;;;;;28.44;23.34;101759.41;5094286;28;1062;-18
2022/12/29 11:11:02;;;;;;;;;;;;;;;28.50;23.17;101766.00;5076310;28;857;-18
2022/12/29 11:13:28;;;;;;;;;;;;;;;28.36;23.59;101759.41;5092023;28;1185;-18
2022/12/29 11:15:54;;;;;;;;;;;;;;;28.26;23.59;101750.56;5078612;28;1032;-18
2022/12/29 11:18:25;;;;;;;;;;;;;;;28.04;23.71;101748.31;5091555;28;1170;-18
2022/12/29 11:21:00;;;;;;;;;;;;;;;28.08;23.58;101746.09;5078821;28;1910;-18
2022/12/29 11:23:26;;;;;;;;;;;;;;;28.07;23.67;101750.69;5097693;28;864;-18
2022/12/29 11:26:11;;;;;;;;;;;;;;;28.19;23.89;101747.66;5093931;28;1197;-18
2022/12/29 11:28:37;;;;;;;;;;;;;;;28.09;23.76;101739.69;5079259;28;1723;-18
2022/12/29 11:31:03;;;;;;;;;;;;;;;28.10;23.76;101735.97;5079242;28;1150;-18
2022/12/29 11:33:29;;;;;;;;;;;;;;;27.98;24.03;101730.88;5077171;28;1028;-18
2022/12/29 11:35:58;;;;;;;;;;;;;;;28.00;23.80;101736.13;5086060;28;1219;-19
2022/12/29 11:38:33;;;;;;;;;;;;;;;27.89;23.81;101741.84;5095248;28;1096;-18
2022/12/29 11:40:58;;;;;;;;;;;;;;;27.89;23.93;101731.88;5086082;28;1976;-18
2022/12/29 11:43:27;;;;;;;;;;;;;;;27.89;23.94;101744.53;5092641;28;1206;-18
2022/12/29 11:45:53;;;;;;;;;;;;;;;27.98;24.19;101738.13;5076421;28;1159;-18
2022/12/29 11:48:19;;;;;;;;;;;;;;;28.04;23.65;101731.22;5088774;28;1114;-18
2022/12/29 11:50:48;;;;;;;;;;;;;;;28.02;23.74;101725.13;5078344;28;1112;-18
2022/12/29 11:53:18;;;;;;;;;;;;;;;28.01;23.90;101726.16;5090421;28;1234;-18
2022/12/29 11:55:56;;;;;;;;;;;;;;;27.62;24.64;101723.81;5076959;28;1076;-18
2022/12/29 11:58:28;;;;;;;;;;;;;;;28.30;23.72;101717.56;5089289;28;1091;-18
2022/12/29 12:00:53;;;;;;;;;;;;;;;28.43;23.26;101721.66;5086064;28;1982;-19
2022/12/29 12:03:23;;;;;;;;;;;;;;;28.39;23.52;101721.19;5094859;28;948;-19
2022/12/29 12:05:52;;;;;;;;;;;;;;;28.52;23.54;101717.09;5075613;28;1011;-18
2022/12/29 12:08:19;;;;;;;;;;;;;;;28.50;23.26;101713.72;5080365;28;1110;-19
2022/12/29 12:10:46;;;;;;;;;;;;;;;28.50;23.38;101700.19;5094616;28;858;-18
2022/12/29 12:13:34;;;;;;;;;;;;;;;28.41;23.14;101699.34;5080945;28;1237;-19
2022/12/29 12:16:08;;;;;;;;;;;;;;;28.10;23.63;101706.22;5091041;28;1987;-18
2022/12/29 12:18:42;;;;;;;;;;;;;;;28.40;23.51;101700.34;5089717;28;1015;-19
2022/12/29 12:21:13;;;;;;;;;;;;;;;28.28;23.36;101692.53;5080223;28;1975;-18
2022/12/29 12:23:42;;;;;;;;;;;;;;;28.23;23.39;101698.47;5084443;28;953;-18
2022/12/29 12:26:12;;;;;;;;;;;;;;;28.25;23.66;101695.59;5093730;28;1063;-18
2022/12/29 12:28:40;;;;;;;;;;;;;;;28.31;23.22;101700.31;5084110;28;1150;-18
2022/12/29 12:31:06;;;;;;;;;;;;;;;28.65;23.20;101686.81;5089861;28;1068;-18
2022/12/29 12:33:33;;;;;;;;;;;;;;;28.44;23.32;101682.78;5085368;28;1265;-18
2022/12/29 12:36:17;;;;;;;;;;;;;;;28.35;23.65;101684.63;5079436;28;936;-18
2022/12/29 12:38:48;;;;;;;;;;;;;;;28.20;23.63;101690.69;5083023;28;1048;-18
2022/12/29 12:41:19;;;;;;;;;;;;;;;28.19;23.57;101694.41;5086224;28;1897;-19
2022/12/29 12:43:51;;;;;;;;;;;;;;;28.33;23.36;101690.22;5080216;28;1066;-18
2022/12/29 12:46:16;;;;;;;;;;;;;;;28.35;23.72;101690.03;5084089;28;1087;-18
2022/12/29 12:49:03;;;;;;;;;;;;;;;28.41;23.74;101696.66;5089785;28;1107;-18
2022/12/29 12:51:36;;;;;;;;;;;;;;;28.28;23.67;101686.31;5091127;28;1151;-18
2022/12/29 12:54:07;;;;;;;;;;;;;;;28.47;23.39;101691.41;5094827;28;1027;-19
2022/12/29 12:56:39;;;;;;;;;;;;;;;28.51;23.65;101686.47;5096149;28;1042;-19
2022/12/29 12:59:10;;;;;;;;;;;;;;;28.34;23.41;101691.06;5093601;28;1092;-19
2022/12/29 13:02:08;;;;;;;;;;;;;;;28.23;23.91;101693.06;5075714;28;1969;-18
2022/12/29 13:04:34;;;;;;;;;;;;;;;28.48;23.73;101698.50;5036991;28;1394;-19
2022/12/29 13:07:18;;;;;;;;;;;;;;;28.36;23.70;101691.75;5089303;28;1242;-19
2022/12/29 13:10:02;;;;;;;;;;;;;;;28.26;23.76;101691.03;5087126;28;1166;-17
2022/12/29 13:12:30;;;;;;;;;;;;;;;28.29;23.75;101688.00;5088928;28;1179;-18
2022/12/29 13:15:08;;;;;;;;;;;;;;;28.38;23.69;101695.09;5091831;28;1226;-18
2022/12/29 13:17:33;;;;;;;;;;;;;;;28.16;23.98;101683.91;5091233;28;1291;-17
2022/12/29 13:20:04;;;;;;;;;;;;;;;28.30;23.72;101690.53;5092748;28;1006;-18
2022/12/29 13:22:34;;;;;;;;;;;;;;;28.31;23.63;101688.66;5093836;28;1921;-18
2022/12/29 13:25:38;;;;;;;;;;;;;;;28.13;24.16;101691.53;5077938;28;1117;-18